Time;durP1;ratioP1;P1;durP2;ratioP2;P2;SDS_P1;SDS_P2;PMS_P1;PMS_P2;Temp;Humidity;BMP_temperature;BMP_pressure;BME280_temperature;BME280_humidity;BME280_pressure;Samples;Min_cycle;Max_cycle;Signal;HPM_P1;HPM_P2
2021/11/22 07:15:11;;;;;;;18.80;11.45;;;;;;;2.19;83.97;101304.31;8694062;33;20435;-74
2021/11/22 07:20:14;;;;;;;19.42;11.82;;;;;;;2.16;83.80;101325.63;8693830;33;20255;-74
2021/11/22 07:25:18;;;;;;;20.90;12.07;;;;;;;2.12;83.43;101324.88;8695812;33;20215;-74
2021/11/22 07:30:22;;;;;;;19.38;11.50;;;;;;;2.11;83.89;101332.84;8752829;33;20247;-74
2021/11/22 07:35:25;;;;;;;22.17;11.82;;;;;;;2.15;84.01;101340.66;8755051;33;20881;-74
2021/11/22 07:40:28;;;;;;;20.30;10.98;;;;;;;2.25;83.86;101354.53;8754476;33;20252;-74
2021/11/22 07:45:33;;;;;;;36.13;16.85;;;;;;;2.57;84.33;101353.50;8754283;33;20219;-74
2021/11/22 07:50:36;;;;;;;37.63;15.55;;;;;;;2.84;83.67;101365.00;8752765;33;20152;-74
2021/11/22 07:55:41;;;;;;;34.08;14.55;;;;;;;3.10;84.30;101375.66;8754145;33;20198;-74
2021/11/22 08:00:45;;;;;;;21.90;10.52;;;;;;;3.27;82.02;101381.28;8753755;33;20140;-74
2021/11/22 08:05:52;;;;;;;16.58;11.25;;;;;;;3.33;81.08;101390.84;8754582;33;20444;-74
2021/11/22 08:11:05;;;;;;;13.15;8.68;;;;;;;3.13;81.27;101394.19;8754178;33;20242;-74
2021/11/22 08:16:11;;;;;;;13.32;9.32;;;;;;;2.98;81.80;101396.41;8753739;33;20828;-74
2021/11/22 08:21:15;;;;;;;14.38;9.20;;;;;;;2.86;81.43;101404.78;8753869;33;20234;-74
2021/11/22 08:26:18;;;;;;;14.77;8.35;;;;;;;2.76;81.41;101420.13;8752440;33;20789;-75
2021/11/22 08:31:23;;;;;;;13.63;8.38;;;;;;;2.55;81.44;101419.03;8753214;33;20151;-74
2021/11/22 08:36:26;;;;;;;15.27;9.45;;;;;;;2.48;82.75;101433.34;8753684;33;20497;-74
2021/11/22 08:41:29;;;;;;;18.80;9.40;;;;;;;2.59;83.52;101435.72;8752961;33;20586;-74
2021/11/22 08:46:36;;;;;;;14.52;8.82;;;;;;;2.72;83.29;101446.81;8749108;33;20544;-74
2021/11/22 08:51:40;;;;;;;13.40;9.05;;;;;;;2.99;83.08;101451.25;8752131;33;20151;-74
2021/11/22 08:56:44;;;;;;;14.68;9.23;;;;;;;3.18;82.76;101456.81;8755739;33;20250;-74
2021/11/22 09:01:48;;;;;;;16.20;9.48;;;;;;;3.63;82.88;101452.66;8752517;33;20235;-74
2021/11/22 09:06:52;;;;;;;17.13;9.70;;;;;;;4.20;84.32;101463.88;8752281;33;20148;-74
2021/11/22 09:11:55;;;;;;;14.65;9.13;;;;;;;5.13;80.82;101462.03;8752255;33;20242;-74
2021/11/22 09:17:00;;;;;;;16.13;9.05;;;;;;;5.95;81.09;101469.19;8752133;33;20302;-74
2021/11/22 09:22:10;;;;;;;13.65;7.70;;;;;;;6.59;78.73;101480.50;8753248;33;20432;-74
2021/11/22 09:27:13;;;;;;;9.15;6.88;;;;;;;7.12;77.43;101479.75;8752412;33;20158;-74
2021/11/22 09:32:17;;;;;;;8.20;5.47;;;;;;;7.40;75.10;101489.94;8752028;33;20424;-74
2021/11/22 09:37:21;;;;;;;7.60;6.00;;;;;;;7.34;73.40;101497.41;8752161;33;20562;-74
2021/11/22 09:42:25;;;;;;;8.15;5.75;;;;;;;7.73;75.91;101503.44;8751144;33;20147;-74
2021/11/22 09:47:29;;;;;;;8.15;6.00;;;;;;;7.84;74.44;101499.31;8750741;33;20250;-75
2021/11/22 09:52:32;;;;;;;9.73;6.45;;;;;;;8.10;71.35;101506.84;8751279;33;20655;-75
2021/11/22 09:57:36;;;;;;;9.27;6.00;;;;;;;8.02;69.35;101524.25;8752026;33;20718;-73
2021/11/22 10:02:48;;;;;;;10.23;6.43;;;;;;;7.90;72.09;101515.06;8752112;33;20278;-74
2021/11/22 10:08:04;;;;;;;8.27;5.55;;;;;;;8.30;68.48;101518.31;8752007;33;20144;-75
2021/11/22 10:13:31;;;;;;;10.45;5.57;;;;;;;8.58;70.72;101523.94;8751820;33;20179;-74
2021/11/22 10:18:44;;;;;;;10.52;5.97;;;;;;;8.66;71.13;101522.63;8751760;33;20575;-74
2021/11/22 10:23:51;;;;;;;7.03;5.47;;;;;;;8.95;72.12;101515.66;8751620;33;20460;-75
2021/11/22 10:28:55;;;;;;;8.18;5.50;;;;;;;9.21;67.75;101503.44;8753472;33;20247;-75
2021/11/22 10:34:01;;;;;;;5.07;4.10;;;;;;;9.14;64.48;101511.00;8757305;33;20669;-74
2021/11/22 10:39:07;;;;;;;3.95;3.10;;;;;;;9.58;65.77;101495.94;8768603;33;20132;-73
2021/11/22 10:44:13;;;;;;;4.15;2.85;;;;;;;9.94;64.65;101525.13;8801415;33;20105;-74
2021/11/22 10:49:28;;;;;;;5.88;3.40;;;;;;;10.15;62.08;101528.34;8770626;33;20668;-75
2021/11/22 10:54:31;;;;;;;8.65;3.58;;;;;;;10.28;60.04;101529.28;8759555;33;20210;-74
2021/11/22 10:59:34;;;;;;;6.55;4.57;;;;;;;10.67;62.35;101533.16;8756079;33;20298;-75
2021/11/22 11:04:44;;;;;;;4.68;3.92;;;;;;;11.01;66.28;101531.81;8756497;33;20619;-75
2021/11/22 11:09:54;;;;;;;6.70;4.45;;;;;;;11.14;64.32;101531.09;8755289;33;20223;-75
2021/11/22 11:15:00;;;;;;;6.03;3.92;;;;;;;12.20;59.75;101526.59;8755971;33;20238;-74
2021/11/22 11:20:13;;;;;;;5.25;4.35;;;;;;;11.89;65.74;101523.34;8755021;33;20144;-74
2021/11/22 11:25:19;;;;;;;6.95;4.97;;;;;;;13.26;66.67;101531.50;8755427;33;20790;-75
2021/11/22 11:30:23;;;;;;;5.95;4.30;;;;;;;14.22;58.71;101516.19;8754966;33;20636;-74
2021/11/22 11:35:32;;;;;;;5.45;4.15;;;;;;;14.46;60.90;101519.69;8759069;33;20426;-74
2021/11/22 11:41:01;;;;;;;3.38;2.65;;;;;;;14.53;52.28;101525.44;8754548;33;20144;-74
2021/11/22 11:46:12;;;;;;;2.88;2.10;;;;;;;14.37;49.62;101526.66;8755230;33;20515;-74
2021/11/22 11:51:20;;;;;;;4.28;2.55;;;;;;;14.06;48.36;101520.06;8754460;33;20625;-74
2021/11/22 11:56:56;;;;;;;4.60;2.00;;;;;;;14.64;58.11;101524.59;8755172;33;20655;-75
2021/11/22 12:02:04;;;;;;;3.17;2.83;;;;;;;15.06;56.34;101528.38;8753675;33;20238;-74
2021/11/22 12:07:11;;;;;;;3.03;2.28;;;;;;;15.39;51.54;101518.47;8754517;33;20239;-74
2021/11/22 12:12:23;;;;;;;4.10;2.78;;;;;;;15.20;52.32;101522.69;8753486;33;20629;-74
2021/11/22 12:17:59;;;;;;;3.90;2.50;;;;;;;14.69;48.33;101519.66;8754427;33;20817;-74
2021/11/22 12:23:07;;;;;;;4.60;2.00;;;;;;;15.04;50.16;101528.47;8754201;33;20225;-76
2021/11/22 12:28:15;;;;;;;2.85;1.88;;;;;;;15.08;49.34;101528.22;8753801;33;20151;-74
2021/11/22 12:33:34;;;;;;;2.15;1.80;;;;;;;14.95;44.40;101529.25;8753540;33;20322;-74
2021/11/22 12:38:48;;;;;;;2.17;1.60;;;;;;;15.17;46.69;101525.63;8753159;33;20147;-73
2021/11/22 12:44:12;;;;;;;3.42;1.60;;;;;;;15.25;40.44;101528.56;8753297;33;20144;-74
2021/11/22 12:49:34;;;;;;;1.77;1.50;;;;;;;15.10;41.16;101532.53;8752817;33;20230;-74
2021/11/22 12:55:00;;;;;;;3.22;2.10;;;;;;;15.17;41.43;101541.03;8752545;33;20151;-74
2021/11/22 13:00:31;;;;;;;4.47;2.25;;;;;;;14.19;40.47;101540.75;8752721;33;20205;-74
2021/11/22 13:05:54;;;;;;;3.17;1.80;;;;;;;13.28;42.14;101534.13;8753162;33;20681;-74
2021/11/22 13:11:02;;;;;;;4.05;2.15;;;;;;;12.92;43.68;101551.19;8752606;33;20278;-74
2021/11/22 13:16:11;;;;;;;4.20;2.10;;;;;;;12.88;44.13;101546.97;8752374;33;20195;-73
2021/11/22 13:21:17;;;;;;;4.13;2.17;;;;;;;11.38;45.10;101550.09;8752031;33;20246;-73
2021/11/22 13:26:26;;;;;;;3.75;2.20;;;;;;;11.52;46.31;101552.75;8753415;33;20426;-75
2021/11/22 13:31:34;;;;;;;3.38;2.00;;;;;;;11.91;45.71;101562.66;8752029;33;20144;-74
2021/11/22 13:36:41;;;;;;;2.55;1.80;;;;;;;12.02;44.71;101561.94;8752512;33;20412;-74
2021/11/22 13:42:02;;;;;;;2.95;1.90;;;;;;;12.08;44.66;101566.88;8752267;33;20250;-74
2021/11/22 13:47:09;;;;;;;4.32;1.83;;;;;;;12.03;44.51;101566.34;8752290;33;20421;-73
2021/11/22 13:52:14;;;;;;;3.15;1.80;;;;;;;11.84;44.75;101571.25;8752301;33;20282;-73
2021/11/22 13:57:21;;;;;;;2.33;1.83;;;;;;;11.50;44.56;101587.84;8751676;33;20483;-74
2021/11/22 14:02:27;;;;;;;3.03;1.90;;;;;;;11.42;45.74;101594.69;8752165;33;20198;-75
2021/11/22 14:07:43;;;;;;;4.45;1.83;;;;;;;11.24;45.78;101585.97;8757364;33;20648;-73
2021/11/22 14:12:47;;;;;;;4.00;2.15;;;;;;;11.13;46.06;101588.50;8757785;33;20144;-74
2021/11/22 14:17:51;;;;;;;2.63;1.80;;;;;;;10.87;46.00;101596.38;8757359;33;20159;-74
2021/11/22 14:23:07;;;;;;;3.05;2.60;;;;;;;10.64;46.39;101588.88;8756804;33;20176;-73
2021/11/22 14:28:18;;;;;;;3.90;1.80;;;;;;;10.28;47.42;101593.72;8756854;33;20147;-74
2021/11/22 14:33:24;;;;;;;2.83;1.88;;;;;;;10.14;48.03;101594.56;8756735;33;20598;-73
2021/11/22 14:38:32;;;;;;;3.40;1.98;;;;;;;9.89;48.15;101595.16;8756012;33;20443;-73
2021/11/22 14:43:43;;;;;;;2.17;1.70;;;;;;;9.44;49.31;101599.56;8756396;33;20140;-74
2021/11/22 14:48:48;;;;;;;3.78;2.20;;;;;;;9.05;50.14;101591.91;8755564;33;20179;-73
2021/11/22 14:54:01;;;;;;;2.80;2.20;;;;;;;8.28;52.26;101606.75;8755731;33;20954;-74
2021/11/22 14:59:23;;;;;;;4.78;3.00;;;;;;;7.90;53.08;101603.34;8755051;33;20162;-73
2021/11/22 15:04:28;;;;;;;3.83;2.65;;;;;;;6.96;55.65;101615.88;8755562;33;20144;-77
2021/11/22 15:09:34;;;;;;;2.20;2.00;;;;;;;6.39;56.85;101609.56;8755193;33;20156;-73
2021/11/22 15:14:50;;;;;;;3.63;1.88;;;;;;;5.92;58.16;101616.00;8754560;33;20612;-73
2021/11/22 15:19:57;;;;;;;3.72;1.95;;;;;;;5.43;60.25;101610.03;8754655;33;20347;-73
2021/11/22 15:25:01;;;;;;;3.10;1.95;;;;;;;5.28;61.15;101615.94;8751839;33;20132;-73
2021/11/22 15:30:10;;;;;;;2.60;2.05;;;;;;;4.97;62.21;101627.75;8754975;33;20141;-74
2021/11/22 15:35:14;;;;;;;5.45;2.17;;;;;;;4.73;62.92;101631.34;8755072;33;20143;-73
2021/11/22 15:40:17;;;;;;;3.88;3.10;;;;;;;4.59;63.31;101646.00;8754151;33;20545;-73
2021/11/22 15:45:22;;;;;;;7.88;3.70;;;;;;;4.47;63.44;101649.13;8754801;33;20529;-73
2021/11/22 15:50:25;;;;;;;6.93;3.60;;;;;;;4.21;64.12;101649.16;8760864;33;20136;-73
2021/11/22 15:55:29;;;;;;;3.40;3.08;;;;;;;4.11;65.09;101652.13;8794424;33;20137;-74
2021/11/22 16:00:34;;;;;;;4.85;3.22;;;;;;;4.06;65.38;101650.53;8772164;33;20152;-74
2021/11/22 16:05:37;;;;;;;5.35;3.80;;;;;;;4.02;65.18;101649.78;8756951;33;20606;-74
2021/11/22 16:10:40;;;;;;;8.50;4.40;;;;;;;3.97;65.32;101658.81;8754776;33;20155;-74
2021/11/22 16:15:44;;;;;;;14.30;8.20;;;;;;;3.94;65.21;101662.44;8754057;33;20154;-74
2021/11/22 16:20:47;;;;;;;15.45;7.85;;;;;;;3.81;65.86;101663.75;8754121;33;20144;-73
2021/11/22 16:25:52;;;;;;;9.48;7.03;;;;;;;3.70;66.27;101666.75;8753998;33;20715;-73
2021/11/22 16:30:56;;;;;;;9.02;6.40;;;;;;;3.69;66.32;101673.88;8753640;33;20172;-73
2021/11/22 16:35:59;;;;;;;8.63;5.28;;;;;;;3.65;67.17;101668.72;8754324;33;20128;-74
2021/11/22 16:41:04;;;;;;;7.32;5.00;;;;;;;3.57;67.44;101666.31;8753492;33;20592;-72
2021/11/22 16:46:09;;;;;;;6.85;5.32;;;;;;;3.43;67.85;101680.03;8754287;33;20184;-73
2021/11/22 16:51:12;;;;;;;8.55;5.70;;;;;;;3.42;68.24;101672.09;8754136;33;20155;-73
2021/11/22 16:56:18;;;;;;;8.13;5.03;;;;;;;3.31;68.39;101677.72;8754001;33;20439;-72
2021/11/22 17:01:22;;;;;;;7.93;5.38;;;;;;;3.26;68.81;101677.88;8752746;33;20152;-73
2021/11/22 17:06:26;;;;;;;9.02;5.95;;;;;;;3.23;69.05;101677.94;8753349;33;20144;-72
2021/11/22 17:11:29;;;;;;;6.68;4.65;;;;;;;3.24;69.28;101682.34;8752820;33;20267;-74
2021/11/22 17:16:34;;;;;;;9.43;5.25;;;;;;;3.12;69.60;101690.66;8765730;33;20236;-73
2021/11/22 17:21:37;;;;;;;6.13;5.53;;;;;;;3.11;69.50;101696.03;8753136;33;20930;-76
2021/11/22 17:26:40;;;;;;;8.13;5.70;;;;;;;3.01;69.53;101704.25;8753250;33;20144;-75
2021/11/22 17:31:45;;;;;;;7.10;5.55;;;;;;;2.90;69.98;101710.78;8752593;33;20239;-75
2021/11/22 17:36:49;;;;;;;8.40;5.63;;;;;;;2.90;70.38;101709.00;8752849;33;20144;-74
2021/11/22 17:41:53;;;;;;;11.85;6.10;;;;;;;2.93;70.27;101722.19;8752598;33;20892;-75
2021/11/22 17:46:57;;;;;;;10.13;5.90;;;;;;;2.92;70.18;101714.28;8753124;33;20144;-74
2021/11/22 17:52:00;;;;;;;7.70;5.38;;;;;;;2.91;70.10;101717.81;8752290;33;20396;-75
2021/11/22 17:57:04;;;;;;;7.32;5.93;;;;;;;2.81;70.10;101717.22;8752799;33;20450;-74
2021/11/22 18:02:09;;;;;;;8.85;6.38;;;;;;;2.72;69.87;101720.16;8752516;33;20327;-74
2021/11/22 18:07:12;;;;;;;7.30;6.20;;;;;;;2.64;70.28;101724.78;8752637;33;20151;-73
2021/11/22 18:12:15;;;;;;;17.40;9.85;;;;;;;2.45;70.54;101725.22;8752336;33;20226;-73
2021/11/22 18:17:20;;;;;;;14.00;8.18;;;;;;;2.26;71.44;101739.88;8752228;33;20210;-73
2021/11/22 18:22:23;;;;;;;13.35;8.52;;;;;;;2.19;71.87;101739.13;8751470;33;20243;-73
2021/11/22 18:27:26;;;;;;;10.77;8.07;;;;;;;2.15;72.18;101734.81;8751353;33;20234;-73
2021/11/22 18:32:31;;;;;;;10.85;8.10;;;;;;;2.04;72.64;101743.03;8751578;33;20193;-73
2021/11/22 18:37:34;;;;;;;16.33;12.13;;;;;;;2.08;72.73;101742.03;8750886;33;20151;-73
2021/11/22 18:42:37;;;;;;;14.05;8.63;;;;;;;2.18;72.85;101740.03;8751518;33;20209;-73
2021/11/22 18:47:42;;;;;;;12.27;6.95;;;;;;;2.10;72.56;101737.56;8751046;33;20219;-73
2021/11/22 18:52:45;;;;;;;11.32;7.57;;;;;;;2.04;72.85;101742.16;8755838;33;20159;-73
2021/11/22 18:57:48;;;;;;;15.60;8.40;;;;;;;2.05;73.24;101736.81;8756244;33;20151;-73
2021/11/22 19:02:53;;;;;;;11.05;7.65;;;;;;;2.10;72.89;101750.81;8756449;33;20241;-73
2021/11/22 19:07:56;;;;;;;8.35;6.53;;;;;;;2.21;72.72;101750.56;8755793;33;20159;-73
2021/11/22 19:12:59;;;;;;;10.23;7.82;;;;;;;2.36;72.51;101741.38;8755584;33;20662;-73
2021/11/22 19:18:05;;;;;;;8.75;6.72;;;;;;;2.45;72.04;101742.94;8754398;33;20238;-73
2021/11/22 19:23:08;;;;;;;7.20;6.25;;;;;;;2.53;71.86;101738.28;8755168;33;20152;-73
2021/11/22 19:28:11;;;;;;;9.32;6.82;;;;;;;2.54;71.63;101745.38;8755709;33;20144;-73
2021/11/22 19:33:15;;;;;;;10.40;6.80;;;;;;;2.55;71.50;101737.38;8758681;33;20200;-73
2021/11/22 19:38:18;;;;;;;12.95;8.65;;;;;;;2.56;71.37;101731.16;8756154;33;20147;-73
2021/11/22 19:43:21;;;;;;;13.63;8.88;;;;;;;2.48;71.23;101734.88;8756372;33;20179;-73
2021/11/22 19:48:26;;;;;;;12.30;9.50;;;;;;;2.25;71.96;101733.69;8755887;33;20219;-74
2021/11/22 19:53:29;;;;;;;14.90;9.38;;;;;;;2.26;72.48;101740.72;8755260;33;20144;-74
2021/11/22 19:58:32;;;;;;;11.38;8.88;;;;;;;2.29;72.70;101723.88;8754767;33;20541;-73
2021/11/22 20:03:36;;;;;;;14.02;9.30;;;;;;;2.18;72.88;101732.09;8755942;33;21325;-73
2021/11/22 20:08:39;;;;;;;15.90;9.75;;;;;;;2.23;72.75;101734.63;8674346;33;20148;-73
2021/11/22 20:13:48;;;;;;;22.77;9.40;;;;;;;2.28;73.24;101746.88;8661373;33;20184;-74
2021/11/22 20:18:54;;;;;;;16.83;10.57;;;;;;;2.53;72.72;101746.25;8660347;33;20153;-74
2021/11/22 20:23:58;;;;;;;17.08;12.07;;;;;;;2.72;72.41;101757.28;8660745;33;20444;-73
2021/11/22 20:29:01;;;;;;;20.40;13.30;;;;;;;2.81;72.03;101770.31;8658742;33;20184;-73
2021/11/22 20:34:05;;;;;;;22.25;14.02;;;;;;;2.75;71.48;101767.81;8659847;33;20256;-73
2021/11/22 20:39:09;;;;;;;23.20;14.70;;;;;;;2.70;71.50;101769.72;8661155;33;20125;-74
2021/11/22 20:44:13;;;;;;;25.92;16.17;;;;;;;2.65;71.54;101769.84;8660495;33;20679;-73
2021/11/22 20:49:17;;;;;;;21.33;13.98;;;;;;;2.58;71.38;101766.47;8683355;33;20844;-73
2021/11/22 20:54:20;;;;;;;15.13;11.07;;;;;;;2.55;71.67;101774.53;8718697;33;20454;-74
2021/11/22 20:59:23;;;;;;;17.02;11.00;;;;;;;2.70;71.68;101780.34;8716681;33;20195;-73
2021/11/22 21:04:37;;;;;;;17.58;12.05;;;;;;;2.71;71.52;101772.31;8718336;33;20872;-73
2021/11/22 21:09:40;;;;;;;18.55;11.10;;;;;;;2.44;72.09;101783.59;8716475;33;20229;-74
2021/11/22 21:14:43;;;;;;;17.58;11.32;;;;;;;2.50;72.14;101783.47;8691670;33;20191;-74
2021/11/22 21:19:47;;;;;;;14.95;11.43;;;;;;;2.61;72.24;101792.94;8717463;33;20401;-73
2021/11/22 21:24:52;;;;;;;20.58;11.13;;;;;;;2.61;71.62;101778.78;8727316;33;20245;-73
2021/11/22 21:29:55;;;;;;;18.02;11.40;;;;;;;2.67;71.91;101781.28;8741782;33;21596;-74
2021/11/22 21:35:00;;;;;;;16.30;10.05;;;;;;;2.63;71.70;101776.94;8723662;33;20758;-73
2021/11/22 21:40:04;;;;;;;19.40;11.52;;;;;;;2.48;71.72;101787.94;8717459;33;20683;-73
2021/11/22 21:45:09;;;;;;;21.98;11.18;;;;;;;2.33;72.15;101784.75;8717329;33;20590;-74
2021/11/22 21:50:15;;;;;;;16.23;10.35;;;;;;;2.06;72.43;101786.28;8715950;33;20179;-74
2021/11/22 21:55:20;;;;;;;17.30;9.85;;;;;;;1.94;73.37;101789.19;8715303;33;20202;-74
2021/11/22 22:00:23;;;;;;;16.85;9.75;;;;;;;2.12;73.73;101787.94;8714101;33;20642;-73
2021/11/22 22:05:28;;;;;;;15.65;9.48;;;;;;;2.29;73.59;101787.50;8715486;33;20232;-74
2021/11/22 22:10:31;;;;;;;16.05;9.98;;;;;;;2.22;73.06;101800.03;8719311;33;20191;-73
2021/11/22 22:15:34;;;;;;;15.95;10.00;;;;;;;2.08;73.04;101799.50;8714034;33;20188;-74
2021/11/22 22:20:39;;;;;;;17.13;11.30;;;;;;;2.11;73.14;101794.13;8715406;33;20148;-75
2021/11/22 22:25:42;;;;;;;16.48;10.90;;;;;;;2.11;73.15;101802.06;8717607;33;20656;-74
2021/11/22 22:30:47;;;;;;;14.88;10.65;;;;;;;2.03;73.31;101799.63;8721743;33;21299;-74
2021/11/22 22:35:51;;;;;;;15.77;10.10;;;;;;;2.04;73.68;101801.34;8721192;33;20345;-74
2021/11/22 22:40:56;;;;;;;13.85;9.13;;;;;;;1.97;74.74;101807.69;8721565;33;20245;-75
2021/11/22 22:45:59;;;;;;;13.00;9.60;;;;;;;1.91;74.68;101808.69;8720428;33;20197;-74
2021/11/22 22:51:04;;;;;;;15.10;9.52;;;;;;;1.97;74.92;101807.69;8720150;33;20208;-74
2021/11/22 22:56:09;;;;;;;16.08;9.50;;;;;;;1.84;75.24;101808.88;8722870;33;20199;-74
2021/11/22 23:01:16;;;;;;;12.80;9.45;;;;;;;1.61;75.63;101815.53;8719882;33;20203;-74
2021/11/22 23:06:21;;;;;;;16.60;9.65;;;;;;;1.55;75.92;101805.06;8719746;33;20196;-73
2021/11/22 23:11:39;;;;;;;18.88;11.32;;;;;;;1.47;76.73;101804.34;8719766;33;20211;-74
2021/11/22 23:16:42;;;;;;;16.00;9.95;;;;;;;1.37;77.04;101805.44;8720993;33;20144;-74
2021/11/22 23:21:47;;;;;;;19.00;11.15;;;;;;;1.48;76.89;101809.63;8719569;33;20140;-74
2021/11/22 23:26:51;;;;;;;16.45;11.10;;;;;;;1.42;76.60;101804.44;8719357;33;20140;-74
2021/11/22 23:31:54;;;;;;;17.65;11.02;;;;;;;1.41;76.60;101804.47;8719516;33;20591;-74
2021/11/22 23:36:58;;;;;;;16.25;10.27;;;;;;;1.48;76.36;101814.03;8718720;33;20606;-72
2021/11/22 23:42:02;;;;;;;18.80;11.73;;;;;;;1.46;76.26;101810.56;8718341;33;20225;-72
2021/11/22 23:47:06;;;;;;;16.00;10.07;;;;;;;1.41;76.24;101801.84;8717835;33;20221;-73
2021/11/22 23:52:11;;;;;;;16.88;11.02;;;;;;;1.32;76.80;101796.72;8718956;33;20210;-72
2021/11/22 23:57:14;;;;;;;16.90;10.98;;;;;;;1.12;77.51;101795.31;8719944;33;20187;-74
